Time;durP1;ratioP1;P1;durP2;ratioP2;P2;SDS_P1;SDS_P2;PMS_P1;PMS_P2;Temp;Humidity;BMP_temperature;BMP_pressure;BME280_temperature;BME280_humidity;BME280_pressure;Samples;Min_cycle;Max_cycle;Signal;HPM_P1;HPM_P2
2021/11/25 00:01:50;;;;;;;27.00;18.05;;;5.60;99.90;;;5.01;100.00;101036.63;4089918;29;20028;-72
2021/11/25 00:03:51;;;;;;;27.52;18.33;;;5.70;99.90;;;5.16;100.00;101045.09;4089829;29;20498;-72
2021/11/25 00:05:52;;;;;;;26.23;16.63;;;5.70;99.90;;;5.15;100.00;101032.97;4088042;29;20027;-72
2021/11/25 00:07:53;;;;;;;26.17;17.58;;;5.70;99.90;;;5.13;100.00;101032.25;4089537;29;20390;-72
2021/11/25 00:09:54;;;;;;;26.70;16.98;;;5.70;99.90;;;5.18;100.00;101029.28;4088632;29;20028;-72
2021/11/25 00:11:55;;;;;;;24.10;17.02;;;5.70;99.90;;;5.12;100.00;101014.88;4089722;29;20028;-72
2021/11/25 00:13:56;;;;;;;27.42;17.05;;;5.70;99.90;;;5.19;100.00;101038.81;4088487;29;20023;-72
2021/11/25 00:15:57;;;;;;;27.98;18.17;;;5.70;99.90;;;5.22;100.00;101044.66;4088359;29;20035;-72
2021/11/25 00:17:58;;;;;;;25.35;17.13;;;5.80;99.90;;;5.18;100.00;101027.50;4104371;28;20507;-72
2021/11/25 00:19:59;;;;;;;27.55;16.60;;;5.70;99.90;;;5.21;100.00;101024.66;4088305;29;20487;-72
2021/11/25 00:22:00;;;;;;;21.88;15.27;;;5.80;99.90;;;5.23;100.00;101027.97;4104211;28;20058;-72
2021/11/25 00:24:04;;;;;;;22.05;15.68;;;5.80;99.90;;;5.34;100.00;101012.34;4088291;29;20041;-72
2021/11/25 00:26:05;;;;;;;26.25;16.83;;;5.90;99.90;;;5.34;100.00;101009.72;4088456;29;20052;-72
2021/11/25 00:28:06;;;;;;;25.83;17.27;;;5.90;99.90;;;5.37;100.00;101008.66;4088176;29;20028;-72
2021/11/25 00:30:09;;;;;;;28.88;17.48;;;5.90;99.90;;;5.33;100.00;100996.75;4089403;29;20035;-72
2021/11/25 00:32:10;;;;;;;26.60;17.08;;;5.90;99.90;;;5.26;100.00;100996.38;4088049;29;20028;-72
2021/11/25 00:34:11;;;;;;;24.30;16.48;;;5.90;99.90;;;5.34;100.00;100996.66;4088059;29;20387;-72
2021/11/25 00:36:12;;;;;;;23.52;15.63;;;5.90;99.90;;;5.45;99.54;100996.66;4089404;29;20031;-72
2021/11/25 00:38:13;;;;;;;23.58;16.48;;;5.90;99.90;;;5.42;100.00;101006.50;4089220;29;20027;-72
2021/11/25 00:40:18;;;;;;;26.10;15.10;;;5.90;99.90;;;5.35;100.00;100995.66;4103693;28;20063;-72
2021/11/25 00:42:19;;;;;;;22.95;15.35;;;6.00;99.90;;;5.28;100.00;100994.50;4071791;29;20589;-71
2021/11/25 00:44:20;;;;;;;24.83;15.82;;;6.00;99.90;;;5.18;100.00;100995.28;4089217;29;20024;-72
2021/11/25 00:46:21;;;;;;;23.58;16.77;;;5.90;99.90;;;5.39;100.00;101002.34;4072021;29;20052;-71
2021/11/25 00:48:22;;;;;;;24.70;16.98;;;5.90;99.90;;;5.43;100.00;101000.34;4104244;29;20090;-72
2021/11/25 00:50:23;;;;;;;25.00;17.00;;;5.90;99.90;;;5.63;98.40;100989.16;4104787;28;20094;-72
2021/11/25 00:52:26;;;;;;;23.60;16.10;;;6.00;99.90;;;5.58;98.78;100992.13;4103856;29;20035;-72
2021/11/25 00:54:27;;;;;;;23.35;15.52;;;6.00;99.90;;;5.41;100.00;100983.91;4089036;29;20046;-72
2021/11/25 00:56:28;;;;;;;25.02;16.63;;;6.00;99.90;;;5.26;100.00;100980.69;4087665;29;20020;-72
2021/11/25 00:58:29;;;;;;;25.55;16.52;;;6.00;99.90;;;5.40;100.00;100983.09;4089001;29;20035;-72
2021/11/25 01:00:30;;;;;;;25.40;15.55;;;6.00;99.90;;;5.51;99.78;100974.41;4088080;29;20019;-72
2021/11/25 01:02:31;;;;;;;24.17;15.20;;;6.00;99.90;;;5.51;99.06;100979.66;4088968;29;20036;-72
2021/11/25 01:04:32;;;;;;;23.95;15.90;;;6.00;99.90;;;5.43;100.00;100977.63;4088483;29;20035;-72
2021/11/25 01:06:33;;;;;;;21.73;15.80;;;5.80;99.90;;;5.34;100.00;100973.09;4087829;29;20026;-72
2021/11/25 01:08:34;;;;;;;23.05;16.35;;;6.00;99.90;;;5.30;100.00;100983.91;4088922;29;20080;-72
2021/11/25 01:10:35;;;;;;;22.10;15.50;;;6.00;99.90;;;5.37;100.00;100977.25;4087550;29;20039;-72
2021/11/25 01:12:36;;;;;;;22.70;15.85;;;6.00;99.90;;;5.37;100.00;100980.72;4087557;29;20031;-72
2021/11/25 01:14:38;;;;;;;25.75;16.25;;;6.00;99.90;;;5.27;100.00;100977.13;4089031;29;20103;-72
2021/11/25 01:16:39;;;;;;;24.55;16.73;;;6.00;99.90;;;5.42;100.00;100970.72;4071814;29;20035;-72
2021/11/25 01:18:40;;;;;;;21.98;15.82;;;6.00;99.90;;;5.54;100.00;100966.34;4088610;29;20112;-72
2021/11/25 01:20:43;;;;;;;22.13;14.82;;;6.00;99.90;;;5.47;99.71;100968.59;4087168;29;20030;-72
2021/11/25 01:22:44;;;;;;;24.17;15.18;;;6.00;99.90;;;5.49;100.00;100966.69;4087738;29;20024;-72
2021/11/25 01:24:46;;;;;;;23.20;14.98;;;6.00;99.90;;;5.44;100.00;100958.34;4088643;29;20052;-72
2021/11/25 01:26:47;;;;;;;22.67;16.02;;;6.00;99.90;;;5.55;99.79;100963.59;4088568;29;20027;-72
2021/11/25 01:28:48;;;;;;;22.08;15.38;;;6.00;99.90;;;5.41;100.00;100960.38;4071488;29;20040;-72
2021/11/25 01:31:00;;;;;;;21.80;14.80;;;6.00;99.90;;;5.37;100.00;100957.19;4087421;29;20512;-72
2021/11/25 01:33:01;;;;;;;18.98;13.73;;;6.40;99.90;;;5.35;100.00;100953.81;4087425;29;20028;-72
2021/11/25 01:35:02;;;;;;;21.35;14.40;;;6.30;99.90;;;5.29;100.00;100954.28;4088285;29;20111;-72
2021/11/25 01:37:03;;;;;;;24.17;16.30;;;5.90;99.90;;;5.19;100.00;100960.34;4088319;29;20151;-72
2021/11/25 01:39:05;;;;;;;23.27;16.13;;;5.80;99.90;;;5.30;100.00;100961.19;4086995;29;20035;-72
2021/11/25 01:41:06;;;;;;;24.70;15.65;;;5.90;99.90;;;5.38;100.00;100969.28;4087306;29;20027;-72
2021/11/25 01:43:08;;;;;;;21.00;14.43;;;5.90;99.90;;;5.57;98.85;100959.09;4087006;29;20051;-72
2021/11/25 01:45:12;;;;;;;22.25;14.15;;;6.00;99.90;;;5.46;100.00;100939.94;4118884;28;20027;-72
2021/11/25 01:47:13;;;;;;;22.08;14.55;;;6.00;99.90;;;5.56;100.00;100967.88;4109028;28;20399;-72
2021/11/25 01:49:14;;;;;;;25.83;14.63;;;6.00;99.90;;;5.48;100.00;100957.19;4103905;28;20566;-72
2021/11/25 01:51:21;;;;;;;21.60;14.90;;;6.00;99.90;;;5.49;100.00;100963.25;4104033;28;20046;-72
2021/11/25 01:53:22;;;;;;;20.77;14.63;;;6.00;99.90;;;5.54;99.95;100956.69;4097988;28;20090;-72
2021/11/25 01:55:25;;;;;;;21.20;15.32;;;6.00;99.90;;;5.47;99.89;100954.66;4087063;29;20520;-72
2021/11/25 01:57:26;;;;;;;21.08;13.60;;;6.00;99.90;;;5.38;100.00;100953.59;4087022;29;20558;-72
2021/11/25 01:59:27;;;;;;;19.95;13.98;;;6.00;99.90;;;5.38;100.00;100964.06;4088029;29;20032;-72
2021/11/25 02:01:35;;;;;;;20.42;13.57;;;6.00;99.90;;;5.32;100.00;100954.06;4087059;29;20075;-72
2021/11/25 02:03:37;;;;;;;22.42;15.35;;;6.00;99.90;;;5.44;100.00;100963.59;4088399;29;20484;-72
2021/11/25 02:05:38;;;;;;;23.10;14.27;;;6.00;99.90;;;5.59;100.00;100975.50;4086722;29;20492;-72
2021/11/25 02:07:39;;;;;;;18.30;13.23;;;6.00;99.90;;;5.41;100.00;100963.81;4086790;29;20032;-72
2021/11/25 02:09:40;;;;;;;20.15;14.45;;;6.00;99.90;;;5.40;100.00;100948.25;4086772;29;20451;-72
2021/11/25 02:11:41;;;;;;;21.42;15.35;;;6.10;99.90;;;5.34;100.00;100957.41;4087073;29;20114;-72
2021/11/25 02:13:42;;;;;;;19.77;14.35;;;6.00;99.90;;;5.39;100.00;100954.44;4088281;29;20020;-72
2021/11/25 02:15:44;;;;;;;21.00;15.32;;;6.00;99.90;;;5.62;100.00;100971.78;4087942;29;20376;-72
2021/11/25 02:17:45;;;;;;;19.67;13.68;;;6.20;99.90;;;5.52;100.00;100953.38;4086890;29;20189;-72
2021/11/25 02:19:50;;;;;;;24.85;16.13;;;6.00;99.90;;;5.47;100.00;100947.66;4070793;29;20115;-72
2021/11/25 02:21:51;;;;;;;23.05;15.43;;;6.10;99.90;;;5.65;100.00;100952.41;4088053;29;20492;-72
2021/11/25 02:23:52;;;;;;;23.55;15.55;;;6.10;99.90;;;5.62;100.00;100956.09;4087969;29;20041;-72
2021/11/25 02:25:54;;;;;;;21.23;15.73;;;6.10;99.90;;;5.69;100.00;100956.47;4088075;29;20032;-72
2021/11/25 02:27:55;;;;;;;23.33;16.10;;;6.10;99.90;;;5.74;98.21;100952.53;4086928;29;20038;-72
2021/11/25 02:29:57;;;;;;;21.40;15.35;;;6.10;99.90;;;5.66;99.20;100954.06;4087996;29;20492;-72
2021/11/25 02:31:58;;;;;;;23.30;15.15;;;6.10;99.90;;;5.61;99.33;100946.59;4086761;29;20079;-72
2021/11/25 02:33:59;;;;;;;23.30;15.98;;;6.10;99.90;;;5.50;100.00;100951.81;4087999;29;20064;-72
2021/11/25 02:36:00;;;;;;;20.55;14.77;;;6.00;99.90;;;5.62;99.49;100944.78;4087025;29;20159;-72
2021/11/25 02:38:01;;;;;;;23.92;15.82;;;6.10;99.90;;;5.65;98.96;100949.78;4102560;28;20086;-72
2021/11/25 02:40:40;;;;;;;22.17;14.18;;;6.10;99.90;;;5.49;99.40;100947.53;4087846;29;20122;-72
2021/11/25 02:42:41;;;;;;;20.05;14.15;;;6.10;99.90;;;5.41;100.00;100942.88;4081900;29;20051;-72
2021/11/25 02:44:42;;;;;;;22.63;14.63;;;6.10;99.90;;;5.46;100.00;100950.41;4102615;28;20082;-72
2021/11/25 02:46:51;;;;;;;22.77;15.40;;;6.10;99.90;;;5.53;100.00;100943.72;4089658;29;20048;-72
2021/11/25 02:48:55;;;;;;;20.08;14.10;;;6.40;99.90;;;5.53;100.00;100947.19;4102513;29;20475;-72
2021/11/25 02:50:59;;;;;;;20.60;13.98;;;6.10;99.90;;;5.51;100.00;100937.78;4102163;29;20035;-72
2021/11/25 02:53:00;;;;;;;21.42;14.75;;;6.10;99.90;;;5.44;100.00;100937.41;4099129;29;20031;-72
2021/11/25 02:55:01;;;;;;;21.50;15.63;;;6.10;99.90;;;5.51;100.00;100928.16;4086661;29;20028;-72
2021/11/25 02:57:02;;;;;;;22.08;15.45;;;6.00;99.90;;;5.55;99.50;100941.84;4087803;29;20039;-72
2021/11/25 02:59:03;;;;;;;17.58;13.30;;;6.10;99.90;;;5.46;99.93;100929.47;4086493;29;20096;-72
2021/11/25 03:01:34;;;;;;;23.67;15.75;;;6.10;99.90;;;5.32;100.00;100930.53;4087642;29;20031;-72
2021/11/25 03:03:34;;;;;;;21.50;15.23;;;6.10;99.90;;;5.40;100.00;100929.94;4086708;29;20027;-72
2021/11/25 03:05:39;;;;;;;23.33;15.45;;;6.10;99.90;;;5.48;100.00;100933.63;4089681;29;20031;-72
2021/11/25 03:07:40;;;;;;;22.23;14.30;;;6.00;99.90;;;5.38;100.00;100924.81;4089493;29;20094;-72
2021/11/25 03:09:40;;;;;;;20.48;14.82;;;6.00;99.90;;;5.48;100.00;100931.00;4090737;29;20462;-72
2021/11/25 03:11:41;;;;;;;21.02;15.52;;;6.00;99.90;;;5.37;100.00;100938.88;4090712;29;20046;-72
2021/11/25 03:13:47;;;;;;;22.60;15.25;;;6.00;99.90;;;5.36;99.24;100933.72;4090575;29;20039;-72
2021/11/25 03:15:48;;;;;;;21.58;14.40;;;6.00;99.90;;;5.31;100.00;100926.25;4090527;29;20031;-72
2021/11/25 03:17:49;;;;;;;24.77;15.40;;;6.00;99.90;;;5.45;100.00;100923.41;4089391;29;20590;-72
2021/11/25 03:19:50;;;;;;;25.08;15.55;;;6.00;99.90;;;5.51;99.50;100922.94;4090343;29;20039;-72
2021/11/25 03:21:51;;;;;;;20.25;14.10;;;6.10;99.90;;;5.55;98.41;100924.34;4090486;29;20024;-72
2021/11/25 03:23:54;;;;;;;20.95;14.82;;;6.10;99.90;;;5.69;97.79;100925.88;4104986;28;20098;-72
2021/11/25 03:25:57;;;;;;;26.00;15.55;;;6.10;99.90;;;5.72;99.09;100922.19;4089368;29;20028;-72
2021/11/25 03:27:59;;;;;;;22.63;15.70;;;6.10;99.90;;;5.63;99.88;100934.22;4089306;29;20036;-72
2021/11/25 03:30:00;;;;;;;24.33;14.60;;;6.20;99.90;;;5.66;97.86;100933.16;4089261;29;20156;-72
2021/11/25 03:32:01;;;;;;;20.15;14.23;;;6.10;99.90;;;5.68;98.18;100929.44;4090320;29;20027;-72
2021/11/25 03:34:04;;;;;;;22.52;13.73;;;6.20;99.90;;;5.58;97.53;100933.75;4090153;29;20106;-72
2021/11/25 03:36:07;;;;;;;20.45;14.15;;;6.20;99.90;;;5.76;97.08;100931.47;4089156;29;20516;-72
2021/11/25 03:38:08;;;;;;;21.67;14.55;;;6.10;99.90;;;5.61;97.78;100941.38;4090232;29;20039;-71
2021/11/25 03:40:11;;;;;;;20.27;13.68;;;6.20;99.90;;;5.63;97.71;100934.22;4090174;29;20480;-72
2021/11/25 03:42:12;;;;;;;20.63;15.35;;;6.20;99.90;;;5.63;98.94;100941.22;4089124;29;20024;-72
2021/11/25 03:44:13;;;;;;;20.25;12.27;;;6.30;99.90;;;5.65;97.86;100939.31;4104842;28;20046;-72
2021/11/25 03:46:15;;;;;;;20.38;14.18;;;6.20;99.90;;;5.48;97.98;100923.16;4088827;29;20025;-72
2021/11/25 03:48:16;;;;;;;17.42;13.52;;;6.20;99.90;;;5.39;99.88;100913.41;4103258;29;20034;-72
2021/11/25 03:50:17;;;;;;;19.27;14.45;;;6.10;99.90;;;5.47;100.00;100925.88;4105822;28;20043;-72
2021/11/25 03:52:18;;;;;;;19.50;13.82;;;6.10;99.90;;;5.69;97.78;100928.50;4104859;29;20134;-72
2021/11/25 03:54:19;;;;;;;17.52;12.57;;;6.10;99.90;;;5.54;98.25;100927.91;4092306;28;20542;-72
2021/11/25 03:56:20;;;;;;;21.35;14.20;;;6.10;99.90;;;5.62;98.99;100929.94;4089960;29;20396;-72
2021/11/25 03:58:21;;;;;;;21.48;14.48;;;6.10;99.90;;;5.63;98.35;100921.13;4090040;29;20036;-72
2021/11/25 04:00:23;;;;;;;20.50;12.65;;;6.20;99.90;;;5.69;97.46;100925.06;4090028;29;20036;-72
2021/11/25 04:02:25;;;;;;;20.55;14.45;;;6.20;99.90;;;5.55;98.48;100921.72;4088812;29;20058;-71
2021/11/25 04:04:26;;;;;;;18.50;13.25;;;6.10;99.90;;;5.50;99.41;100931.72;4089598;29;20090;-72
2021/11/25 04:06:27;;;;;;;17.63;12.80;;;6.10;99.90;;;5.42;100.00;100926.25;4088783;29;20032;-72
2021/11/25 04:08:28;;;;;;;19.92;14.05;;;6.10;99.90;;;5.36;100.00;100923.28;4088764;29;20118;-72
2021/11/25 04:10:30;;;;;;;18.83;12.65;;;6.00;99.90;;;5.59;99.45;100936.22;4089860;29;20024;-72
2021/11/25 04:12:31;;;;;;;20.35;13.05;;;6.10;99.90;;;5.66;99.30;100936.59;4088493;29;20031;-72
2021/11/25 04:14:32;;;;;;;19.85;13.45;;;6.10;99.90;;;5.50;97.93;100936.94;4072757;29;20047;-72
2021/11/25 04:16:34;;;;;;;18.23;12.77;;;6.10;99.90;;;5.55;98.44;100947.88;4103240;28;20027;-72
2021/11/25 04:18:35;;;;;;;18.60;12.30;;;6.20;99.90;;;5.59;99.56;100951.09;4089635;29;20492;-72
2021/11/25 04:20:36;;;;;;;21.40;12.90;;;6.20;99.90;;;5.72;98.36;100945.75;4088104;29;20079;-72
2021/11/25 04:22:37;;;;;;;17.33;12.27;;;6.10;99.90;;;5.71;98.88;100942.28;4088536;29;20076;-72
2021/11/25 04:24:38;;;;;;;19.02;13.20;;;6.10;99.90;;;5.79;97.28;100937.31;4088472;29;20036;-72
2021/11/25 04:26:40;;;;;;;21.38;13.18;;;6.20;99.90;;;5.75;97.77;100940.28;4088419;29;20070;-72
2021/11/25 04:28:41;;;;;;;18.10;12.82;;;6.20;99.90;;;5.69;99.02;100943.38;4088325;29;20110;-72
2021/11/25 04:37:24;;;;;;;21.15;13.35;;;6.30;99.90;;;5.84;96.77;100953.47;4095032;29;20143;-72
2021/11/25 04:39:26;;;;;;;21.05;13.15;;;6.30;99.90;;;5.87;97.00;100945.41;4104192;29;20043;-71
2021/11/25 04:41:27;;;;;;;16.73;12.82;;;6.30;99.90;;;5.79;98.25;100950.41;4104213;29;20035;-72
2021/11/25 04:43:30;;;;;;;19.30;13.05;;;6.40;99.90;;;5.70;97.97;100942.44;4105120;28;20027;-72
2021/11/25 04:45:34;;;;;;;21.65;14.25;;;6.30;99.90;;;5.73;97.89;100955.28;4104181;29;20112;-72
2021/11/25 04:47:35;;;;;;;20.67;13.35;;;6.30;99.90;;;5.77;96.67;100946.22;4104874;28;20047;-72
2021/11/25 04:49:35;;;;;;;22.48;14.00;;;6.30;99.90;;;5.69;96.92;100951.22;4103689;29;20165;-72
2021/11/25 04:51:37;;;;;;;20.98;14.18;;;6.30;99.90;;;5.61;98.23;100954.44;4105018;28;20030;-72
2021/11/25 04:53:38;;;;;;;22.55;13.80;;;6.20;99.90;;;5.63;98.79;100949.09;4095587;28;20040;-72
2021/11/25 04:55:41;;;;;;;21.23;13.85;;;6.20;99.90;;;5.55;98.28;100947.88;4088162;29;20083;-71
2021/11/25 04:57:42;;;;;;;18.13;12.90;;;6.20;99.90;;;5.68;99.55;100953.00;4088029;29;20039;-72
2021/11/25 04:59:43;;;;;;;19.52;14.00;;;6.20;99.90;;;5.80;98.10;100945.97;4088925;29;20070;-72
2021/11/25 05:01:44;;;;;;;20.20;12.98;;;6.20;99.90;;;5.83;96.92;100956.19;4089122;29;20027;-72
2021/11/25 05:03:44;;;;;;;20.10;12.82;;;6.20;99.90;;;5.80;97.23;100959.91;4089051;29;20075;-72
2021/11/25 05:05:46;;;;;;;20.30;13.25;;;6.30;99.90;;;5.70;96.92;100950.28;4071776;29;20035;-72
2021/11/25 05:07:47;;;;;;;21.13;13.65;;;6.30;99.90;;;5.37;99.20;100948.50;4103517;28;20076;-72
2021/11/25 05:09:48;;;;;;;19.70;13.20;;;6.20;99.90;;;5.52;98.53;100948.16;4087805;29;20126;-72
2021/11/25 05:11:48;;;;;;;20.00;13.23;;;6.10;99.90;;;5.66;98.08;100951.47;4087779;29;20028;-72
2021/11/25 05:13:49;;;;;;;18.98;13.20;;;6.20;99.90;;;5.57;99.27;100953.84;4088856;29;20031;-72
2021/11/25 05:15:50;;;;;;;18.63;13.65;;;6.20;99.90;;;5.69;97.97;100948.59;4103352;28;20482;-72
2021/11/25 05:17:51;;;;;;;19.27;13.82;;;6.20;99.90;;;5.54;98.62;100948.00;4087656;29;20043;-72
2021/11/25 05:19:52;;;;;;;19.77;12.73;;;6.20;99.90;;;5.74;98.62;100970.00;4071628;29;20027;-72
2021/11/25 05:21:54;;;;;;;20.10;13.18;;;6.20;99.90;;;5.79;97.13;100958.25;4088868;29;20135;-72
2021/11/25 05:23:55;;;;;;;19.15;13.57;;;6.20;99.90;;;5.69;97.63;100953.84;4088760;29;20028;-72
2021/11/25 05:25:55;;;;;;;19.77;13.75;;;6.30;99.90;;;5.64;98.14;100972.53;4088830;29;20555;-71
2021/11/25 05:27:56;;;;;;;19.45;14.30;;;6.30;99.90;;;5.65;98.20;100963.72;4088523;29;20035;-72
2021/11/25 05:29:57;;;;;;;21.40;13.40;;;6.30;99.90;;;5.69;98.77;100964.31;4087489;29;20032;-72
2021/11/25 05:31:58;;;;;;;19.38;13.45;;;6.20;99.90;;;5.73;97.87;100966.59;4088584;29;20396;-72
2021/11/25 05:33:59;;;;;;;21.65;14.18;;;6.30;99.90;;;5.67;98.35;100961.81;4088468;29;20035;-72
2021/11/25 05:36:00;;;;;;;18.92;13.02;;;6.20;99.90;;;5.64;97.62;100958.59;4088741;29;20074;-72
2021/11/25 05:38:01;;;;;;;17.55;12.82;;;6.30;99.90;;;5.53;97.90;100962.03;4088466;29;20488;-71
2021/11/25 05:40:04;;;;;;;19.45;13.77;;;6.20;99.90;;;5.29;99.33;100963.91;4087229;29;20054;-72
2021/11/25 05:42:05;;;;;;;18.23;12.63;;;6.20;99.90;;;5.62;99.04;100963.09;4087318;29;20115;-72
2021/11/25 05:44:08;;;;;;;17.40;12.38;;;6.20;99.90;;;5.61;97.74;100958.84;4087326;29;20034;-72
2021/11/25 05:46:09;;;;;;;19.60;12.98;;;6.20;99.90;;;5.68;97.92;100960.84;4088124;29;20028;-72
2021/11/25 05:48:10;;;;;;;17.35;12.77;;;6.20;99.90;;;5.68;98.52;100960.84;4101928;29;20031;-72
2021/11/25 05:50:18;;;;;;;19.63;13.35;;;6.20;99.90;;;5.58;98.63;100963.34;4102957;29;20035;-72
2021/11/25 05:52:19;;;;;;;22.08;14.02;;;6.30;99.90;;;5.66;98.10;100969.78;4103181;29;20035;-72
2021/11/25 05:54:19;;;;;;;20.98;13.20;;;6.20;99.90;;;5.56;97.45;100967.03;4089204;28;20039;-72
2021/11/25 05:56:20;;;;;;;19.85;13.27;;;6.20;99.90;;;5.69;97.62;100977.41;4088297;29;20051;-72
2021/11/25 05:58:21;;;;;;;18.98;12.55;;;6.20;99.90;;;5.83;96.11;100980.59;4088259;29;20074;-72
2021/11/25 06:00:22;;;;;;;20.85;13.02;;;6.20;99.90;;;5.66;98.00;100977.63;4087098;29;20049;-72
2021/11/25 06:02:23;;;;;;;21.75;13.48;;;7.00;99.90;;;5.74;97.94;100978.69;4102856;28;20134;-72
2021/11/25 06:04:24;;;;;;;19.08;12.85;;;6.10;99.90;;;5.74;97.05;100975.25;4087804;29;20028;-72
2021/11/25 06:06:25;;;;;;;17.75;12.80;;;6.20;99.90;;;5.59;98.44;100970.25;4087808;29;20035;-72
2021/11/25 06:08:26;;;;;;;19.08;13.05;;;6.20;99.90;;;5.73;98.49;100973.59;4088130;29;20039;-72
2021/11/25 06:10:28;;;;;;;19.42;13.63;;;6.20;99.90;;;5.81;98.50;100972.03;4086946;29;20040;-72
2021/11/25 06:12:29;;;;;;;20.63;13.75;;;6.20;99.90;;;5.56;98.61;100983.56;4086790;29;20038;-71
2021/11/25 06:14:30;;;;;;;22.98;13.50;;;6.20;99.90;;;5.54;99.22;100984.66;4088231;29;20055;-72
2021/11/25 06:16:31;;;;;;;20.80;14.43;;;6.30;99.90;;;5.44;99.65;100981.06;4102661;28;20191;-72
2021/11/25 06:18:32;;;;;;;19.73;14.15;;;6.20;99.90;;;5.39;100.00;100973.56;4086852;29;20579;-71
2021/11/25 06:20:33;;;;;;;19.08;13.70;;;6.20;99.90;;;5.38;100.00;100973.69;4086553;29;20024;-72
2021/11/25 06:22:34;;;;;;;18.45;12.45;;;6.20;99.90;;;5.33;100.00;100970.59;4102704;28;20024;-71
2021/11/25 06:24:35;;;;;;;20.27;13.13;;;6.10;99.90;;;5.34;100.00;100972.25;4097368;29;20126;-71
2021/11/25 06:26:39;;;;;;;19.33;13.75;;;6.00;99.90;;;5.43;100.00;100982.88;4102767;28;20036;-72
2021/11/25 06:28:40;;;;;;;;;;;6.00;99.90;;;5.50;100.00;100986.66;4103017;29;20491;-72
2021/11/25 06:30:42;;;;;;;23.55;14.80;;;6.10;99.90;;;5.42;100.00;100991.66;4086199;29;19914;-72
2021/11/25 06:32:46;;;;;;;21.02;14.40;;;6.10;99.90;;;5.39;100.00;100989.28;4086647;29;20046;-71
2021/11/25 06:34:47;;;;;;;20.30;14.10;;;6.10;99.90;;;5.54;100.00;101001.19;4102342;29;20031;-71
2021/11/25 06:36:48;;;;;;;22.40;14.43;;;6.10;99.90;;;5.49;100.00;100997.25;4118274;28;20039;-71
2021/11/25 06:38:48;;;;;;;20.38;14.25;;;6.10;99.90;;;5.45;100.00;100998.44;4103772;28;20054;-72
2021/11/25 06:40:49;;;;;;;20.55;13.43;;;6.10;99.90;;;5.41;100.00;100997.81;4105213;29;20070;-71
2021/11/25 06:42:50;;;;;;;20.85;13.70;;;6.10;99.90;;;5.63;100.00;101004.88;4106908;28;20023;-71
2021/11/25 06:44:51;;;;;;;21.55;13.73;;;6.10;99.90;;;5.86;98.25;101000.50;4105621;29;20023;-71
2021/11/25 06:46:52;;;;;;;18.27;12.07;;;6.20;99.90;;;5.83;97.96;101011.16;4106737;28;20522;-71
2021/11/25 06:48:53;;;;;;;25.02;14.52;;;6.20;99.90;;;5.66;99.27;100998.56;4106785;29;20042;-71
2021/11/25 06:50:54;;;;;;;21.48;13.02;;;6.20;99.90;;;5.69;97.67;100987.88;4105661;29;20038;-71
2021/11/25 06:52:55;;;;;;;20.98;13.40;;;6.30;99.90;;;5.66;99.49;100988.09;4104261;28;20031;-72
2021/11/25 06:54:56;;;;;;;23.35;14.15;;;6.20;99.90;;;5.58;99.37;100994.75;4105583;28;20031;-72
2021/11/25 06:56:57;;;;;;;18.30;12.57;;;6.30;99.90;;;5.61;98.93;100985.84;4096808;29;20434;-71
2021/11/25 06:58:58;;;;;;;23.13;14.57;;;6.30;99.90;;;5.69;99.33;100999.16;4106360;28;20038;-71
2021/11/25 07:01:04;;;;;;;18.52;13.80;;;6.20;99.90;;;5.74;98.58;100991.78;4105534;29;20491;-71
2021/11/25 07:03:05;;;;;;;21.95;13.68;;;6.20;99.90;;;5.65;99.28;100992.50;4106789;28;20066;-71
2021/11/25 07:05:08;;;;;;;19.52;13.68;;;6.20;99.90;;;5.73;98.94;100986.69;4105179;29;20031;-72
2021/11/25 07:07:08;;;;;;;19.45;13.25;;;6.70;99.90;;;5.68;98.96;100986.19;4105522;29;20027;-71
2021/11/25 07:09:10;;;;;;;23.05;14.77;;;6.30;99.90;;;5.66;99.73;100991.56;4105191;29;20514;-71
2021/11/25 07:11:11;;;;;;;20.83;13.65;;;6.20;99.90;;;5.73;98.90;100990.13;4105489;29;20027;-71
2021/11/25 07:13:15;;;;;;;21.73;14.90;;;6.30;99.90;;;5.79;98.06;101001.91;4107491;29;20043;-71
2021/11/25 07:15:20;;;;;;;20.30;13.20;;;6.30;99.90;;;5.62;98.88;101000.56;4106096;29;20078;-71
2021/11/25 07:17:21;;;;;;;22.50;14.88;;;6.30;99.90;;;5.71;99.39;101006.88;4103802;29;20035;-71
2021/11/25 07:19:22;;;;;;;24.13;14.45;;;6.30;99.90;;;5.83;97.90;101012.00;4103647;29;20398;-71
2021/11/25 07:21:24;;;;;;;19.92;13.32;;;6.30;99.90;;;5.70;98.64;101006.06;4105242;29;20023;-71
2021/11/25 07:23:26;;;;;;;25.60;15.88;;;6.40;99.90;;;5.71;99.83;101007.72;4106433;28;20039;-71
2021/11/25 07:25:27;;;;;;;22.48;14.00;;;6.40;99.90;;;5.78;99.05;101002.84;4105989;28;20037;-71
2021/11/25 07:27:27;;;;;;;20.48;14.02;;;6.30;99.90;;;5.82;99.43;101009.53;4105181;29;20110;-72
2021/11/25 07:29:28;;;;;;;18.25;12.85;;;6.40;99.90;;;5.80;98.80;101011.41;4120423;28;20042;-72
2021/11/25 07:31:29;;;;;;;22.13;14.25;;;6.30;99.90;;;5.72;99.27;101003.31;4103359;29;20038;-72
2021/11/25 07:33:32;;;;;;;25.55;14.65;;;6.30;99.90;;;5.52;98.86;101013.56;4119865;28;20030;-73
2021/11/25 07:35:33;;;;;;;20.23;14.90;;;6.20;99.90;;;5.42;100.00;101017.81;4120428;28;20041;-73
2021/11/25 07:37:34;;;;;;;22.27;14.80;;;6.10;99.90;;;5.46;100.00;101018.41;4104631;29;20426;-73
2021/11/25 07:39:35;;;;;;;19.65;13.90;;;6.00;99.90;;;5.36;99.80;101010.44;4105497;28;20175;-72
2021/11/25 07:41:38;;;;;;;21.35;14.32;;;6.00;99.90;;;5.46;100.00;101007.97;4105672;28;20058;-73
2021/11/25 07:43:39;;;;;;;22.63;14.90;;;6.00;99.90;;;5.54;100.00;101014.25;4105849;28;20057;-72
2021/11/25 07:45:40;;;;;;;20.20;13.60;;;5.90;99.90;;;5.53;100.00;101020.44;4104930;29;20531;-73
2021/11/25 07:47:42;;;;;;;22.52;13.85;;;6.00;99.90;;;5.55;98.86;101029.00;4120645;28;20038;-72
2021/11/25 07:49:43;;;;;;;24.63;15.00;;;6.00;99.90;;;5.50;99.39;101020.66;4104366;29;20036;-72
2021/11/25 07:51:44;;;;;;;21.27;13.98;;;6.00;99.90;;;5.57;98.50;101037.59;4105881;28;20418;-73
2021/11/25 07:53:45;;;;;;;19.38;13.52;;;6.00;99.90;;;5.52;99.59;101034.50;4096808;28;20111;-72
2021/11/25 07:55:47;;;;;;;20.98;14.77;;;6.00;99.90;;;5.47;100.00;101039.22;4090066;29;20519;-72
2021/11/25 07:57:50;;;;;;;19.52;14.18;;;6.00;99.90;;;5.67;99.05;101042.94;4089986;29;20492;-73
2021/11/25 07:59:50;;;;;;;21.50;14.82;;;6.00;99.90;;;5.51;98.73;101039.81;4093375;29;20036;-72
2021/11/25 08:01:52;;;;;;;19.45;13.13;;;6.10;99.90;;;5.48;99.91;101047.91;4105888;28;20038;-73
2021/11/25 08:03:53;;;;;;;22.40;14.50;;;6.00;99.90;;;5.48;99.85;101050.53;4104429;29;20023;-73
2021/11/25 08:05:54;;;;;;;21.58;15.05;;;6.00;99.90;;;5.34;99.79;101050.72;4105724;28;20127;-72
2021/11/25 08:07:57;;;;;;;19.83;13.35;;;6.00;99.90;;;5.42;100.00;101059.66;4105736;28;20028;-72
2021/11/25 08:09:58;;;;;;;20.38;14.05;;;6.00;99.90;;;5.41;99.66;101058.00;4104788;29;20458;-73
2021/11/25 08:11:59;;;;;;;22.80;14.45;;;6.00;99.90;;;5.50;100.00;101061.69;4105756;28;20027;-72
2021/11/25 08:14:00;;;;;;;21.30;14.35;;;6.00;99.90;;;5.64;98.69;101052.81;4105658;28;20121;-73
2021/11/25 08:16:02;;;;;;;21.83;14.07;;;6.10;99.90;;;5.66;98.77;101064.81;4104461;29;20550;-72
2021/11/25 08:18:04;;;;;;;20.45;14.00;;;6.20;99.90;;;5.58;99.18;101067.19;4120385;28;20059;-72
2021/11/25 08:20:06;;;;;;;22.40;14.73;;;6.20;99.90;;;5.48;99.96;101059.22;4105371;28;20019;-72
2021/11/25 08:22:07;;;;;;;22.45;15.25;;;6.20;99.90;;;5.35;100.00;101063.69;4104289;29;20082;-73
2021/11/25 08:24:08;;;;;;;21.80;15.05;;;6.20;99.90;;;5.52;100.00;101058.03;4105628;28;20031;-73
2021/11/25 08:26:09;;;;;;;23.15;15.23;;;6.20;99.90;;;5.58;100.00;101060.16;4104283;29;20086;-73
2021/11/25 08:28:10;;;;;;;24.63;16.05;;;6.30;99.90;;;5.54;100.00;101058.75;4104215;28;20027;-72
2021/11/25 08:30:14;;;;;;;21.02;15.90;;;6.30;99.90;;;5.70;99.87;101062.81;4105425;28;20070;-72
2021/11/25 08:32:15;;;;;;;19.45;13.75;;;6.30;99.90;;;5.59;99.87;101066.22;4104037;29;20034;-72